createdAt,value
2023-05-13T00:00:12.444Z,0.66
2023-05-13T00:01:12.486Z,0.66
2023-05-13T00:02:11.535Z,0.66
2023-05-13T00:03:11.793Z,0.65
2023-05-13T00:04:12.602Z,0.65
2023-05-13T00:05:12.643Z,0.66
2023-05-13T00:06:11.719Z,0.65
2023-05-13T00:07:11.731Z,0.67
2023-05-13T00:08:11.772Z,0.66
2023-05-13T00:09:12.802Z,0.65
2023-05-13T00:10:12.880Z,0.66
2023-05-13T00:11:11.910Z,0.65
2023-05-13T00:12:12.936Z,0.66
2023-05-13T00:13:11.992Z,0.66
2023-05-13T00:14:12.065Z,0.65
2023-05-13T00:15:12.081Z,0.65
2023-05-13T00:16:12.174Z,0.66
2023-05-13T00:17:12.152Z,0.65
2023-05-13T00:18:13.199Z,0.66
2023-05-13T00:19:12.404Z,0.66
2023-05-13T00:20:12.279Z,0.66
2023-05-13T00:21:13.319Z,0.66
2023-05-13T00:22:13.358Z,0.65
2023-05-13T00:23:12.420Z,0.66
2023-05-13T00:24:13.438Z,0.67
2023-05-13T00:25:12.486Z,0.66
2023-05-13T00:26:12.578Z,0.66
2023-05-13T00:27:13.578Z,0.65
2023-05-13T00:28:13.626Z,0.66
2023-05-13T00:29:12.686Z,0.66
2023-05-13T00:30:13.729Z,0.66
2023-05-13T00:31:12.808Z,0.66
2023-05-13T00:32:13.827Z,0.67
2023-05-13T00:33:12.861Z,0.65
2023-05-13T00:34:13.893Z,0.66
2023-05-13T00:35:13.948Z,0.66
2023-05-13T00:36:13.992Z,0.66
2023-05-13T00:37:13.039Z,0.64
2023-05-13T00:38:13.087Z,0.65
2023-05-13T00:39:14.137Z,0.66
2023-05-13T00:40:13.199Z,0.64
2023-05-13T00:41:13.245Z,0.65
2023-05-13T00:42:13.306Z,0.65
2023-05-13T00:43:13.337Z,0.65
2023-05-13T00:44:14.630Z,0.65
2023-05-13T00:45:14.422Z,0.66
2023-05-13T00:46:14.483Z,0.65
2023-05-13T00:47:13.525Z,0.66
2023-05-13T00:48:14.584Z,0.66
2023-05-13T00:49:13.617Z,0.66
2023-05-13T00:50:14.661Z,0.66
2023-05-13T00:51:13.727Z,0.65
2023-05-13T00:52:13.836Z,0.65
2023-05-13T00:53:14.808Z,0.65
2023-05-13T00:54:13.856Z,0.66
2023-05-13T00:55:14.902Z,0.66
2023-05-13T00:56:13.956Z,0.66
2023-05-13T00:57:15.012Z,0.65
2023-05-13T00:58:15.084Z,0.65
2023-05-13T00:59:14.089Z,0.64
2023-05-13T01:00:14.158Z,0.66
2023-05-13T01:01:14.276Z,0.66
2023-05-13T01:02:15.310Z,0.64
2023-05-13T01:03:15.504Z,0.65
2023-05-13T01:04:15.372Z,0.65
2023-05-13T01:05:15.405Z,0.65
2023-05-13T01:06:14.448Z,0.64
2023-05-13T01:07:15.505Z,0.64
2023-05-13T01:08:14.571Z,0.66
2023-05-13T01:09:15.616Z,0.66
2023-05-13T01:10:15.664Z,0.65
2023-05-13T01:11:15.718Z,0.65
2023-05-13T01:12:14.754Z,0.65
2023-05-13T01:13:15.805Z,0.65
2023-05-13T01:14:14.883Z,0.64
2023-05-13T01:15:15.909Z,0.65
2023-05-13T01:16:15.995Z,0.64
2023-05-13T01:17:16.011Z,0.65
2023-05-13T01:18:15.036Z,0.64
2023-05-13T01:19:16.137Z,0.65
2023-05-13T01:20:15.154Z,0.66
2023-05-13T01:21:15.189Z,0.64
2023-05-13T01:22:16.238Z,0.64
2023-05-13T01:23:16.306Z,0.65
2023-05-13T01:24:15.388Z,0.65
2023-05-13T01:25:16.400Z,0.66
2023-05-13T01:26:16.452Z,0.65
2023-05-13T01:27:16.505Z,0.63
2023-05-13T01:28:16.540Z,0.65
2023-05-13T01:29:15.583Z,0.64
2023-05-13T01:30:16.664Z,0.65
2023-05-13T01:31:16.725Z,0.64
2023-05-13T01:32:16.758Z,0.65
2023-05-13T01:33:16.792Z,0.65
2023-05-13T01:34:15.841Z,0.66
2023-05-13T01:35:15.913Z,0.64
2023-05-13T01:36:16.942Z,0.65
2023-05-13T01:37:15.989Z,0.64
2023-05-13T01:38:17.035Z,0.64
2023-05-13T01:39:16.102Z,0.65
2023-05-13T01:40:31.148Z,0.65
2023-05-13T01:41:17.135Z,0.65
2023-05-13T01:42:17.125Z,0.65
2023-05-13T01:43:16.133Z,0.65
2023-05-13T01:44:16.110Z,0.65
2023-05-13T01:45:16.139Z,0.65
2023-05-13T01:46:16.197Z,0.64
2023-05-13T01:47:17.099Z,0.65
2023-05-13T01:48:16.105Z,0.65
2023-05-13T01:49:17.086Z,0.65
2023-05-13T01:50:17.079Z,0.65
2023-05-13T01:51:17.062Z,0.66
2023-05-13T01:52:17.075Z,0.65
2023-05-13T01:53:16.054Z,0.64
2023-05-13T01:54:17.047Z,0.64
2023-05-13T01:55:17.055Z,0.65
2023-05-13T01:56:16.032Z,0.67
2023-05-13T01:57:16.023Z,0.65
2023-05-13T01:58:17.028Z,0.65
2023-05-13T01:59:17.026Z,0.65
2023-05-13T02:00:16.006Z,0.64
2023-05-13T02:01:17.057Z,0.66
2023-05-13T02:02:17.047Z,0.65
2023-05-13T02:03:17.057Z,0.65
2023-05-13T02:04:16.009Z,0.64
2023-05-13T02:05:17.058Z,0.64
2023-05-13T02:06:16.971Z,0.65
2023-05-13T02:07:16.995Z,0.64
2023-05-13T02:08:17.060Z,0.65
2023-05-13T02:09:16.105Z,0.64
2023-05-13T02:10:16.179Z,0.64
2023-05-13T02:11:17.214Z,0.64
2023-05-13T02:12:17.280Z,0.64
2023-05-13T02:13:16.310Z,0.66
2023-05-13T02:14:17.361Z,0.64
2023-05-13T02:15:17.422Z,0.64
2023-05-13T02:16:17.516Z,0.65
2023-05-13T02:17:17.538Z,0.64
2023-05-13T02:18:17.622Z,0.66
2023-05-13T02:19:17.675Z,0.64
2023-05-13T02:20:17.723Z,0.63
2023-05-13T02:21:16.772Z,0.64
2023-05-13T02:22:17.825Z,0.65
2023-05-13T02:23:17.886Z,0.64
2023-05-13T02:24:17.934Z,0.64
2023-05-13T02:25:17.996Z,0.65
2023-05-13T02:26:17.038Z,0.64
2023-05-13T02:27:18.094Z,0.64
2023-05-13T02:28:17.146Z,0.64
2023-05-13T02:29:18.196Z,0.64
2023-05-13T02:30:18.252Z,0.64
2023-05-13T02:31:17.306Z,0.64
2023-05-13T02:32:17.363Z,0.64
2023-05-13T02:33:17.389Z,0.64
2023-05-13T02:34:18.473Z,0.65
2023-05-13T02:35:18.517Z,0.64
2023-05-13T02:36:18.565Z,0.63
2023-05-13T02:37:17.600Z,0.63
2023-05-13T02:38:18.662Z,0.64
2023-05-13T02:39:18.713Z,0.63
2023-05-13T02:40:18.878Z,0.64
2023-05-13T02:41:17.816Z,0.66
2023-05-13T02:42:18.868Z,0.65
2023-05-13T02:43:18.918Z,0.65
2023-05-13T02:44:19.015Z,0.66
2023-05-13T02:45:19.045Z,0.64
2023-05-13T02:46:18.117Z,0.63
2023-05-13T02:47:18.150Z,0.62
2023-05-13T02:48:18.202Z,0.64
2023-05-13T02:49:19.251Z,0.63
2023-05-13T02:50:19.499Z,0.64
2023-05-13T02:51:19.361Z,0.64
2023-05-13T02:52:19.425Z,0.64
2023-05-13T02:53:18.481Z,0.64
2023-05-13T02:54:19.533Z,0.63
2023-05-13T02:55:19.620Z,0.64
2023-05-13T02:56:18.638Z,0.63
2023-05-13T02:57:19.713Z,0.63
2023-05-13T02:58:19.780Z,0.66
2023-05-13T02:59:18.817Z,0.63
2023-05-13T03:00:20.127Z,0.64
2023-05-13T03:01:18.975Z,0.64
2023-05-13T03:02:20.066Z,0.64
2023-05-13T03:03:19.218Z,0.63
2023-05-13T03:04:19.128Z,0.64
2023-05-13T03:05:20.154Z,0.65
2023-05-13T03:06:20.274Z,0.66
2023-05-13T03:07:20.281Z,0.65
2023-05-13T03:08:19.333Z,0.63
2023-05-13T03:09:20.387Z,0.63
2023-05-13T03:10:19.594Z,0.64
2023-05-13T03:11:20.509Z,0.64
2023-05-13T03:12:19.595Z,0.64
2023-05-13T03:13:19.624Z,0.65
2023-05-13T03:14:20.699Z,0.64
2023-05-13T03:15:20.749Z,0.64
2023-05-13T03:16:20.903Z,0.64
2023-05-13T03:17:20.937Z,0.63
2023-05-13T03:18:20.924Z,0.64
2023-05-13T03:19:19.956Z,0.64
2023-05-13T03:20:21.245Z,0.63
2023-05-13T03:21:21.064Z,0.65
2023-05-13T03:22:20.143Z,0.64
2023-05-13T03:23:21.211Z,0.64
2023-05-13T03:24:20.215Z,0.63
2023-05-13T03:25:21.272Z,0.64
2023-05-13T03:26:20.333Z,0.64
2023-05-13T03:27:20.392Z,0.64
2023-05-13T03:28:21.459Z,0.63
2023-05-13T03:29:20.492Z,0.63
2023-05-13T03:30:21.774Z,0.63
2023-05-13T03:31:21.643Z,0.64
2023-05-13T03:32:21.702Z,0.63
2023-05-13T03:33:21.751Z,0.65
2023-05-13T03:34:20.796Z,0.63
2023-05-13T03:35:21.872Z,0.63
2023-05-13T03:36:21.930Z,0.64
2023-05-13T03:37:20.984Z,0.63
2023-05-13T03:38:22.089Z,0.63
2023-05-13T03:39:21.172Z,0.62
2023-05-13T03:40:22.476Z,0.64
2023-05-13T03:41:21.240Z,0.64
2023-05-13T03:42:21.295Z,0.65
2023-05-13T03:43:22.372Z,0.63
2023-05-13T03:44:21.414Z,0.64
2023-05-13T03:45:22.466Z,0.64
2023-05-13T03:46:21.577Z,0.65
2023-05-13T03:47:21.603Z,0.65
2023-05-13T03:48:22.670Z,0.64
2023-05-13T03:49:22.723Z,0.64
2023-05-13T03:50:23.070Z,0.63
2023-05-13T03:51:21.821Z,0.63
2023-05-13T03:52:22.905Z,0.63
2023-05-13T03:53:22.948Z,0.64
2023-05-13T03:54:23.054Z,0.63
2023-05-13T03:55:22.089Z,0.64
2023-05-13T03:56:22.131Z,0.63
2023-05-13T03:57:23.262Z,0.64
2023-05-13T03:58:23.276Z,0.63
2023-05-13T03:59:23.318Z,0.64
2023-05-13T04:00:23.525Z,0.65
2023-05-13T04:01:23.444Z,0.63
2023-05-13T04:02:23.578Z,0.64
2023-05-13T04:03:23.671Z,0.63
2023-05-13T04:04:22.721Z,0.63
2023-05-13T04:05:22.746Z,0.63
2023-05-13T04:06:23.743Z,0.63
2023-05-13T04:07:23.807Z,0.63
2023-05-13T04:08:22.873Z,0.63
2023-05-13T04:09:23.929Z,0.63
2023-05-13T04:10:23.196Z,0.63
2023-05-13T04:11:23.043Z,0.65
2023-05-13T04:12:24.106Z,0.63
2023-05-13T04:13:23.164Z,0.63
2023-05-13T04:14:24.223Z,0.64
2023-05-13T04:15:24.274Z,0.63
2023-05-13T04:16:24.374Z,0.63
2023-05-13T04:17:24.456Z,0.63
2023-05-13T04:18:24.472Z,0.64
2023-05-13T04:19:24.519Z,0.63
2023-05-13T04:20:23.864Z,0.64
2023-05-13T04:21:24.637Z,0.64
2023-05-13T04:22:24.698Z,0.63
2023-05-13T04:23:24.769Z,0.64
2023-05-13T04:24:23.840Z,0.63
2023-05-13T04:25:23.882Z,0.64
2023-05-13T04:26:24.982Z,0.64
2023-05-13T04:27:24.008Z,0.63
2023-05-13T04:28:24.059Z,0.63
2023-05-13T04:29:24.122Z,0.64
2023-05-13T04:30:24.182Z,0.63
2023-05-13T04:31:25.258Z,0.63
2023-05-13T04:32:24.331Z,0.63
2023-05-13T04:33:25.366Z,0.64
2023-05-13T04:34:25.431Z,0.63
2023-05-13T04:35:24.497Z,0.62
2023-05-13T04:36:25.550Z,0.63
2023-05-13T04:37:25.618Z,0.63
2023-05-13T04:38:24.676Z,0.64
2023-05-13T04:39:25.718Z,0.64
2023-05-13T04:40:25.765Z,0.63
2023-05-13T04:41:25.827Z,0.63
2023-05-13T04:42:26.001Z,0.63
2023-05-13T04:43:25.973Z,0.63
2023-05-13T04:44:26.020Z,0.62
2023-05-13T04:45:25.088Z,0.64
2023-05-13T04:46:26.181Z,0.63
2023-05-13T04:47:26.231Z,0.63
2023-05-13T04:48:26.256Z,0.63
2023-05-13T04:49:25.319Z,0.63
2023-05-13T04:50:25.410Z,0.63
2023-05-13T04:51:25.440Z,0.63
2023-05-13T04:52:26.530Z,0.63
2023-05-13T04:53:26.596Z,0.64
2023-05-13T04:54:26.651Z,0.64
2023-05-13T04:55:27.768Z,0.63
2023-05-13T04:56:26.737Z,0.64
2023-05-13T04:57:25.816Z,0.62
2023-05-13T04:58:26.887Z,0.62
2023-05-13T04:59:26.937Z,0.64
2023-05-13T05:00:26.997Z,0.63
2023-05-13T05:01:26.125Z,0.63
2023-05-13T05:02:27.149Z,0.64
2023-05-13T05:03:26.217Z,0.62
2023-05-13T05:04:26.245Z,0.62
2023-05-13T05:05:27.323Z,0.64
2023-05-13T05:06:27.380Z,0.64
2023-05-13T05:07:26.450Z,0.63
2023-05-13T05:08:27.500Z,0.64
2023-05-13T05:09:27.559Z,0.62
2023-05-13T05:10:27.621Z,0.63
2023-05-13T05:11:26.674Z,0.63
2023-05-13T05:12:28.409Z,0.64
2023-05-13T05:13:26.821Z,0.63
2023-05-13T05:14:26.897Z,0.64
2023-05-13T05:15:27.963Z,0.62
2023-05-13T05:16:26.980Z,0.63
2023-05-13T05:17:27.113Z,0.62
2023-05-13T05:18:27.276Z,0.64
2023-05-13T05:19:28.310Z,0.63
2023-05-13T05:20:28.227Z,0.62
2023-05-13T05:21:27.279Z,0.62
2023-05-13T05:22:27.359Z,0.63
2023-05-13T05:23:28.408Z,0.62
2023-05-13T05:24:28.471Z,0.62
2023-05-13T05:25:28.543Z,0.64
2023-05-13T05:26:28.600Z,0.63
2023-05-13T05:27:27.648Z,0.63
2023-05-13T05:28:28.719Z,0.63
2023-05-13T05:29:28.769Z,0.62
2023-05-13T05:30:28.864Z,0.63
2023-05-13T05:31:28.935Z,0.64
2023-05-13T05:32:27.969Z,0.64
2023-05-13T05:33:29.021Z,0.64
2023-05-13T05:34:29.074Z,0.64
2023-05-13T05:35:29.147Z,0.62
2023-05-13T05:36:29.173Z,0.63
2023-05-13T05:37:29.238Z,0.63
2023-05-13T05:38:28.300Z,0.64
2023-05-13T05:39:28.365Z,0.62
2023-05-13T05:40:29.406Z,0.63
2023-05-13T05:41:28.464Z,0.63
2023-05-13T05:42:28.531Z,0.63
2023-05-13T05:43:28.644Z,0.64
2023-05-13T05:44:28.640Z,0.62
2023-05-13T05:45:28.724Z,0.63
2023-05-13T05:46:29.852Z,0.62
2023-05-13T05:47:28.923Z,0.64
2023-05-13T05:48:30.445Z,0.64
2023-05-13T05:49:29.140Z,0.62
2023-05-13T05:50:29.203Z,0.61
2023-05-13T05:51:30.234Z,0.62
2023-05-13T05:52:29.325Z,0.63
2023-05-13T05:53:29.374Z,0.62
2023-05-13T05:54:30.432Z,0.62
2023-05-13T05:55:30.478Z,0.63
2023-05-13T05:56:30.541Z,0.63
2023-05-13T05:57:29.587Z,0.63
2023-05-13T05:58:30.679Z,0.62
2023-05-13T05:59:30.702Z,0.63
2023-05-13T06:00:30.754Z,0.63
2023-05-13T06:01:30.817Z,0.63
2023-05-13T06:02:30.030Z,0.63
2023-05-13T06:03:30.000Z,0.62
2023-05-13T06:04:30.098Z,0.63
2023-05-13T06:05:31.060Z,0.63
2023-05-13T06:06:30.179Z,0.63
2023-05-13T06:07:31.161Z,0.63
2023-05-13T06:08:31.277Z,0.63
2023-05-13T06:09:31.287Z,0.63
2023-05-13T06:10:31.338Z,0.62
2023-05-13T06:11:31.404Z,0.63
2023-05-13T06:12:31.452Z,0.62
2023-05-13T06:13:30.513Z,0.63
2023-05-13T06:14:31.584Z,0.63
2023-05-13T06:15:31.640Z,0.63
2023-05-13T06:16:31.773Z,0.63
2023-05-13T06:17:31.777Z,0.63
2023-05-13T06:18:31.894Z,0.63
2023-05-13T06:19:30.869Z,0.64
2023-05-13T06:20:31.907Z,0.62
2023-05-13T06:21:31.980Z,0.62
2023-05-13T06:22:32.104Z,0.64
2023-05-13T06:23:32.085Z,0.63
2023-05-13T06:24:32.143Z,0.64
2023-05-13T06:25:31.195Z,0.63
2023-05-13T06:26:32.266Z,0.63
2023-05-13T06:27:32.329Z,0.63
2023-05-13T06:28:32.373Z,0.63
2023-05-13T06:29:31.438Z,0.62
2023-05-13T06:30:32.496Z,0.64
2023-05-13T06:31:32.579Z,0.64
2023-05-13T06:32:32.652Z,0.62
2023-05-13T06:33:31.752Z,0.63
2023-05-13T06:34:31.763Z,0.63
2023-05-13T06:35:32.868Z,0.63
2023-05-13T06:36:32.851Z,0.63
2023-05-13T06:37:31.913Z,0.65
2023-05-13T06:38:31.977Z,0.62
2023-05-13T06:39:33.032Z,0.63
2023-05-13T06:40:33.101Z,0.65
2023-05-13T06:41:33.160Z,0.64
2023-05-13T06:42:32.211Z,0.62
2023-05-13T06:43:32.262Z,0.64
2023-05-13T06:44:33.337Z,0.63
2023-05-13T06:45:32.388Z,0.63
2023-05-13T06:46:32.451Z,0.63
2023-05-13T06:47:33.522Z,0.63
2023-05-13T06:48:32.558Z,0.63
2023-05-13T06:49:33.639Z,0.64
2023-05-13T06:50:32.731Z,0.64
2023-05-13T06:51:33.748Z,0.63
2023-05-13T06:52:33.818Z,0.64
2023-05-13T06:53:32.889Z,0.64
2023-05-13T06:54:32.927Z,0.63
2023-05-13T06:55:33.975Z,0.63
2023-05-13T06:56:34.031Z,0.64
2023-05-13T06:57:41.656Z,0.64
2023-05-13T06:58:34.099Z,0.64
2023-05-13T06:59:34.081Z,0.64
2023-05-13T07:00:33.058Z,0.64
2023-05-13T07:01:33.094Z,0.64
2023-05-13T07:02:33.111Z,0.65
2023-05-13T07:03:33.117Z,0.63
2023-05-13T07:04:33.048Z,0.62
2023-05-13T07:05:34.022Z,0.64
2023-05-13T07:06:34.055Z,0.62
2023-05-13T07:07:34.034Z,0.62
2023-05-13T07:08:33.098Z,0.63
2023-05-13T07:09:33.160Z,0.63
2023-05-13T07:10:34.328Z,0.63
2023-05-13T07:11:33.251Z,0.63
2023-05-13T07:12:34.292Z,0.64
2023-05-13T07:13:34.360Z,0.63
2023-05-13T07:14:33.421Z,0.63
2023-05-13T07:15:34.467Z,0.63
2023-05-13T07:16:33.520Z,0.64
2023-05-13T07:17:33.698Z,0.63
2023-05-13T07:18:33.710Z,0.63
2023-05-13T07:19:34.692Z,0.63
2023-05-13T07:20:33.754Z,0.64
2023-05-13T07:21:34.809Z,0.64
2023-05-13T07:22:34.870Z,0.63
2023-05-13T07:23:34.898Z,0.63
2023-05-13T07:24:33.950Z,0.63
2023-05-13T07:25:35.014Z,0.63
2023-05-13T07:26:35.072Z,0.64
2023-05-13T07:27:34.145Z,0.64
2023-05-13T07:28:35.171Z,0.64
2023-05-13T07:29:34.245Z,0.62
2023-05-13T07:30:35.315Z,0.64
2023-05-13T07:31:35.357Z,0.64
2023-05-13T07:32:35.389Z,0.64
2023-05-13T07:33:35.433Z,0.64
2023-05-13T07:34:35.512Z,0.64
2023-05-13T07:35:35.539Z,0.63
2023-05-13T07:36:34.645Z,0.62
2023-05-13T07:37:34.634Z,0.64
2023-05-13T07:38:35.714Z,0.63
2023-05-13T07:39:35.751Z,0.64
2023-05-13T07:40:35.784Z,0.63
2023-05-13T07:41:35.829Z,0.63
2023-05-13T07:42:34.871Z,0.64
2023-05-13T07:43:35.920Z,0.64
2023-05-13T07:44:34.967Z,0.63
2023-05-13T07:45:35.022Z,0.65
2023-05-13T07:46:36.132Z,0.64
2023-05-13T07:47:36.190Z,0.63
2023-05-13T07:48:35.179Z,0.64
2023-05-13T07:49:35.245Z,0.63
2023-05-13T07:50:35.269Z,0.64
2023-05-13T07:51:36.312Z,0.64
2023-05-13T07:52:36.361Z,0.63
2023-05-13T07:53:36.421Z,0.65
2023-05-13T07:54:36.509Z,0.64
2023-05-13T07:55:36.527Z,0.64
2023-05-13T07:56:35.562Z,0.64
2023-05-13T07:57:36.606Z,0.64
2023-05-13T07:58:35.666Z,0.64
2023-05-13T07:59:36.701Z,0.64
2023-05-13T08:00:35.714Z,0.64
2023-05-13T08:01:35.790Z,0.64
2023-05-13T08:02:35.869Z,0.65
2023-05-13T08:03:37.103Z,0.64
2023-05-13T08:04:36.935Z,0.65
2023-05-13T08:05:35.960Z,0.64
2023-05-13T08:06:37.136Z,0.64
2023-05-13T08:07:36.052Z,0.64
2023-05-13T08:08:37.093Z,0.64
2023-05-13T08:09:37.136Z,0.64
2023-05-13T08:10:36.227Z,0.64
2023-05-13T08:11:37.239Z,0.64
2023-05-13T08:12:37.308Z,0.63
2023-05-13T08:13:37.310Z,0.64
2023-05-13T08:14:36.359Z,0.64
2023-05-13T08:15:36.407Z,0.65
2023-05-13T08:16:37.525Z,0.66
2023-05-13T08:17:37.523Z,0.65
2023-05-13T08:18:37.555Z,0.65
2023-05-13T08:19:37.579Z,0.64
2023-05-13T08:20:36.635Z,0.66
2023-05-13T08:21:36.650Z,0.65
2023-05-13T08:22:37.700Z,0.65
2023-05-13T08:23:44.707Z,0.66
2023-05-13T08:24:37.745Z,0.66
2023-05-13T08:25:37.721Z,0.66
2023-05-13T08:26:37.744Z,0.66
2023-05-13T08:27:37.699Z,0.65
2023-05-13T08:28:37.699Z,0.66
2023-05-13T08:29:37.707Z,0.65
2023-05-13T08:30:36.698Z,0.64
2023-05-13T08:31:37.690Z,0.66
2023-05-13T08:32:36.719Z,0.64
2023-05-13T08:33:36.673Z,0.65
2023-05-13T08:34:36.676Z,0.64
2023-05-13T08:35:37.662Z,0.67
2023-05-13T08:36:37.659Z,0.65
2023-05-13T08:37:36.696Z,0.66
2023-05-13T08:38:37.739Z,0.66
2023-05-13T08:39:36.784Z,0.65
2023-05-13T08:40:37.903Z,0.66
2023-05-13T08:41:36.870Z,0.66
2023-05-13T08:42:36.908Z,0.65
2023-05-13T08:43:36.910Z,0.66
2023-05-13T08:44:36.936Z,0.67
2023-05-13T08:45:38.005Z,0.66
2023-05-13T08:46:38.116Z,0.65
2023-05-13T08:47:38.154Z,0.67
2023-05-13T08:48:38.088Z,0.67
2023-05-13T08:49:38.123Z,0.66
2023-05-13T08:50:37.164Z,0.68
2023-05-13T08:51:38.190Z,0.67
2023-05-13T08:52:38.248Z,0.67
2023-05-13T08:53:38.274Z,0.68
2023-05-13T08:54:37.316Z,0.67
2023-05-13T08:55:38.329Z,0.68
2023-05-13T08:56:38.385Z,0.69
2023-05-13T08:57:38.403Z,0.68
2023-05-13T08:58:38.465Z,0.69
2023-05-13T08:59:37.454Z,0.70
2023-05-13T09:00:37.476Z,0.68
2023-05-13T09:01:38.539Z,0.70
2023-05-13T09:02:38.580Z,0.68
2023-05-13T09:03:37.560Z,0.70
2023-05-13T09:04:38.570Z,0.67
2023-05-13T09:05:39.075Z,0.69
2023-05-13T09:06:37.601Z,0.70
2023-05-13T09:07:37.621Z,0.68
2023-05-13T09:08:38.639Z,0.67
2023-05-13T09:09:38.652Z,0.68
2023-05-13T09:10:37.691Z,0.68
2023-05-13T09:11:37.709Z,0.67
2023-05-13T09:12:38.692Z,0.68
2023-05-13T09:13:38.727Z,0.67
2023-05-13T09:14:38.771Z,0.66
2023-05-13T09:15:37.784Z,0.66
2023-05-13T09:16:38.846Z,0.67
2023-05-13T09:17:37.791Z,0.67
2023-05-13T09:18:37.925Z,0.67
2023-05-13T09:19:38.873Z,0.66
2023-05-13T09:20:38.824Z,0.65
2023-05-13T09:21:38.834Z,0.67
2023-05-13T09:22:37.863Z,0.66
2023-05-13T09:23:38.860Z,0.66
2023-05-13T09:24:38.866Z,0.66
2023-05-13T09:25:38.880Z,0.66
2023-05-13T09:26:38.909Z,0.65
2023-05-13T09:27:38.920Z,0.67
2023-05-13T09:28:38.899Z,0.67
2023-05-13T09:29:38.925Z,0.64
2023-05-13T09:30:38.988Z,0.67
2023-05-13T09:31:39.012Z,0.66
2023-05-13T09:32:38.015Z,0.66
2023-05-13T09:33:38.969Z,0.66
2023-05-13T09:34:37.968Z,0.66
2023-05-13T09:35:37.968Z,0.67
2023-05-13T09:36:38.984Z,0.67
2023-05-13T09:37:38.018Z,0.67
2023-05-13T09:38:38.006Z,0.65
2023-05-13T09:39:38.031Z,0.67
2023-05-13T09:40:38.026Z,0.65
2023-05-13T09:41:39.014Z,0.64
2023-05-13T09:42:39.049Z,0.65
2023-05-13T09:43:38.032Z,0.66
2023-05-13T09:44:39.052Z,0.66
2023-05-13T09:45:38.045Z,0.66
2023-05-13T09:46:39.088Z,0.64
2023-05-13T09:47:38.075Z,0.66
2023-05-13T09:48:39.061Z,0.66
2023-05-13T09:49:39.061Z,0.66
2023-05-13T09:50:38.066Z,0.65
2023-05-13T09:51:39.081Z,0.65
2023-05-13T09:52:38.084Z,0.65
2023-05-13T09:53:39.080Z,0.64
2023-05-13T09:54:38.077Z,0.66
2023-05-13T09:55:39.095Z,0.65
2023-05-13T09:56:38.089Z,0.65
2023-05-13T09:57:39.109Z,0.65
2023-05-13T09:58:39.102Z,0.66
2023-05-13T09:59:38.107Z,0.65
2023-05-13T10:00:39.234Z,0.64
2023-05-13T10:01:38.130Z,0.64
2023-05-13T10:02:39.108Z,0.66
2023-05-13T10:03:39.109Z,0.66
2023-05-13T10:04:38.082Z,0.65
2023-05-13T10:05:39.086Z,0.65
2023-05-13T10:06:39.096Z,0.65
2023-05-13T10:07:38.079Z,0.64
2023-05-13T10:08:38.089Z,0.65
2023-05-13T10:09:39.078Z,0.66
2023-05-13T10:10:38.109Z,0.64
2023-05-13T10:11:38.079Z,0.64
2023-05-13T10:12:39.064Z,0.66
2023-05-13T10:13:38.063Z,0.65
2023-05-13T10:14:38.085Z,0.66
2023-05-13T10:15:38.056Z,0.65
2023-05-13T10:16:38.065Z,0.64
2023-05-13T10:17:38.112Z,0.65
2023-05-13T10:18:38.120Z,0.66
2023-05-13T10:19:38.052Z,0.66
2023-05-13T10:20:39.054Z,0.66
2023-05-13T10:21:39.054Z,0.64
2023-05-13T10:22:39.054Z,0.64
2023-05-13T10:23:38.065Z,0.65
2023-05-13T10:24:38.769Z,0.65
2023-05-13T10:25:39.053Z,0.65
2023-05-13T10:26:39.046Z,0.64
2023-05-13T10:27:39.035Z,0.64
2023-05-13T10:28:39.096Z,0.64
2023-05-13T10:29:38.046Z,0.65
2023-05-13T10:30:38.044Z,0.65
2023-05-13T10:31:38.060Z,0.64
2023-05-13T10:32:38.085Z,0.64
2023-05-13T10:33:38.043Z,0.64
2023-05-13T10:34:38.061Z,0.64
2023-05-13T10:35:41.975Z,0.65
2023-05-13T10:36:39.061Z,0.65
2023-05-13T10:37:38.045Z,0.65
2023-05-13T10:38:39.025Z,0.65
2023-05-13T10:39:39.024Z,0.66
2023-05-13T10:40:38.003Z,0.66
2023-05-13T10:41:39.012Z,0.64
2023-05-13T10:42:38.998Z,0.66
2023-05-13T10:43:38.012Z,0.64
2023-05-13T10:44:37.984Z,0.65
2023-05-13T10:45:38.996Z,0.66
2023-05-13T10:46:39.116Z,0.65
2023-05-13T10:47:38.140Z,0.65
2023-05-13T10:48:38.045Z,0.65
2023-05-13T10:49:37.959Z,0.66
2023-05-13T10:50:39.044Z,0.66
2023-05-13T10:51:37.930Z,0.64
2023-05-13T10:52:37.928Z,0.65
2023-05-13T10:53:37.921Z,0.65
2023-05-13T10:54:38.943Z,0.66
2023-05-13T10:55:37.911Z,0.65
2023-05-13T10:56:38.902Z,0.65
2023-05-13T10:57:37.942Z,0.65
2023-05-13T10:58:38.909Z,0.64
2023-05-13T10:59:38.909Z,0.66
2023-05-13T11:00:38.906Z,0.64
2023-05-13T11:01:38.901Z,0.65
2023-05-13T11:02:37.935Z,0.65
2023-05-13T11:03:37.939Z,0.65
2023-05-13T11:04:38.844Z,0.64
2023-05-13T11:05:37.843Z,0.64
2023-05-13T11:06:38.882Z,0.65
2023-05-13T11:07:37.833Z,0.64
2023-05-13T11:08:38.827Z,0.64
2023-05-13T11:09:38.815Z,0.64
2023-05-13T11:10:38.849Z,0.64
2023-05-13T11:11:37.812Z,0.64
2023-05-13T11:12:37.784Z,0.64
2023-05-13T11:13:38.796Z,0.64
2023-05-13T11:14:38.790Z,0.63
2023-05-13T11:15:37.788Z,0.64
2023-05-13T11:16:38.915Z,0.63
2023-05-13T11:17:37.783Z,0.64
2023-05-13T11:18:37.782Z,0.65
2023-05-13T11:19:37.760Z,0.64
2023-05-13T11:20:51.206Z,0.63
2023-05-13T11:21:38.957Z,0.63
2023-05-13T11:22:37.957Z,0.64
2023-05-13T11:23:37.968Z,0.64
2023-05-13T11:24:38.926Z,0.63
2023-05-13T11:25:38.935Z,0.64
2023-05-13T11:26:37.949Z,0.65
2023-05-13T11:27:38.963Z,0.64
2023-05-13T11:28:37.958Z,0.64
2023-05-13T11:29:38.990Z,0.63
2023-05-13T11:30:38.966Z,0.65
2023-05-13T11:31:39.014Z,0.66
2023-05-13T11:32:37.993Z,0.63
2023-05-13T11:33:38.984Z,0.63
2023-05-13T11:34:39.005Z,0.64
2023-05-13T11:35:39.019Z,0.64
2023-05-13T11:36:38.036Z,0.63
2023-05-13T11:37:39.052Z,0.63
2023-05-13T11:38:39.068Z,0.63
2023-05-13T11:39:38.069Z,0.62
2023-05-13T11:40:38.074Z,0.63
2023-05-13T11:41:39.104Z,0.63
2023-05-13T11:42:38.112Z,0.63
2023-05-13T11:43:38.137Z,0.62
2023-05-13T11:44:39.181Z,0.63
2023-05-13T11:45:38.230Z,0.64
2023-05-13T11:46:38.228Z,0.63
2023-05-13T11:47:38.301Z,0.65
2023-05-13T11:48:39.277Z,0.63
2023-05-13T11:49:39.291Z,0.63
2023-05-13T11:50:39.326Z,0.64
2023-05-13T11:51:39.289Z,0.64
2023-05-13T11:52:39.305Z,0.63
2023-05-13T11:53:39.305Z,0.64
2023-05-13T11:54:39.329Z,0.64
2023-05-13T11:55:38.333Z,0.61
2023-05-13T11:56:38.336Z,0.62
2023-05-13T11:57:38.339Z,0.62
2023-05-13T11:58:39.337Z,0.63
2023-05-13T11:59:47.618Z,0.63
2023-05-13T12:00:39.345Z,0.63
2023-05-13T12:01:38.330Z,0.63
2023-05-13T12:02:38.564Z,0.62
2023-05-13T12:03:38.327Z,0.62
2023-05-13T12:04:39.337Z,0.63
2023-05-13T12:05:39.360Z,0.63
2023-05-13T12:06:39.292Z,0.63
2023-05-13T12:07:39.394Z,0.63
2023-05-13T12:08:38.284Z,0.63
2023-05-13T12:09:38.277Z,0.62
2023-05-13T12:10:39.301Z,0.62
2023-05-13T12:11:38.256Z,0.62
2023-05-13T12:12:38.255Z,0.63
2023-05-13T12:13:39.262Z,0.62
2023-05-13T12:14:39.243Z,0.63
2023-05-13T12:15:38.266Z,0.64
2023-05-13T12:16:38.222Z,0.62
2023-05-13T12:17:38.243Z,0.63
2023-05-13T12:18:38.284Z,0.63
2023-05-13T12:19:39.219Z,0.62
2023-05-13T12:20:38.224Z,0.63
2023-05-13T12:21:39.204Z,0.61
2023-05-13T12:22:39.193Z,0.62
2023-05-13T12:23:38.192Z,0.61
2023-05-13T12:24:39.174Z,0.62
2023-05-13T12:25:39.178Z,0.62
2023-05-13T12:26:38.197Z,0.62
2023-05-13T12:27:39.169Z,0.62
2023-05-13T12:28:39.160Z,0.62
2023-05-13T12:29:38.171Z,0.62
2023-05-13T12:30:39.203Z,0.61
2023-05-13T12:31:38.259Z,0.61
2023-05-13T12:32:39.270Z,0.60
2023-05-13T12:33:39.256Z,0.62
2023-05-13T12:34:38.251Z,0.62
2023-05-13T12:35:38.270Z,0.61
2023-05-13T12:36:39.382Z,0.60
2023-05-13T12:37:38.287Z,0.61
2023-05-13T12:38:39.280Z,0.63
2023-05-13T12:39:39.283Z,0.60
2023-05-13T12:40:38.316Z,0.62
2023-05-13T12:41:39.349Z,0.61
2023-05-13T12:42:39.325Z,0.61
2023-05-13T12:43:39.331Z,0.61
2023-05-13T12:44:39.325Z,0.61
2023-05-13T12:45:41.574Z,0.61
2023-05-13T12:46:38.370Z,0.61
2023-05-13T12:47:38.326Z,0.61
2023-05-13T12:48:38.300Z,0.61
2023-05-13T12:49:38.304Z,0.61
2023-05-13T12:50:39.282Z,0.63
2023-05-13T12:51:39.290Z,0.62
2023-05-13T12:52:39.278Z,0.62
2023-05-13T12:53:39.256Z,0.62
2023-05-13T12:54:38.256Z,0.61
2023-05-13T12:55:39.260Z,0.62
2023-05-13T12:56:38.257Z,0.62
2023-05-13T12:57:38.250Z,0.60
2023-05-13T12:58:39.248Z,0.62
2023-05-13T12:59:39.236Z,0.61
2023-05-13T13:00:38.303Z,0.62
2023-05-13T13:01:39.375Z,0.60
2023-05-13T13:02:39.301Z,0.61
2023-05-13T13:03:38.330Z,0.62
2023-05-13T13:04:38.194Z,0.61
2023-05-13T13:05:38.203Z,0.61
2023-05-13T13:06:39.223Z,0.62
2023-05-13T13:07:39.182Z,0.61
2023-05-13T13:08:38.173Z,0.62
2023-05-13T13:09:38.179Z,0.61
2023-05-13T13:10:39.175Z,0.61
2023-05-13T13:11:39.257Z,0.62
2023-05-13T13:12:39.200Z,0.62
2023-05-13T13:13:39.606Z,0.62
2023-05-13T13:14:39.258Z,0.63
2023-05-13T13:15:38.237Z,0.62
2023-05-13T13:16:39.300Z,0.62
2023-05-13T13:17:39.296Z,0.62
2023-05-13T13:18:38.303Z,0.62